createdAt,value
2022-11-27T00:01:25.793Z,19.17
2022-11-27T00:03:54.501Z,19.55
2022-11-27T00:06:24.163Z,24.85
2022-11-27T00:08:51.085Z,20.23
2022-11-27T00:11:23.660Z,15.65
2022-11-27T00:13:51.469Z,19.13
2022-11-27T00:16:19.889Z,15.43
2022-11-27T00:18:47.155Z,16.58
2022-11-27T00:21:16.781Z,14.35
2022-11-27T00:23:43.996Z,18.40
2022-11-27T00:26:11.350Z,16.08
2022-11-27T00:28:38.703Z,16.92
2022-11-27T00:31:21.877Z,17.48
2022-11-27T00:33:49.238Z,15.60
2022-11-27T00:36:16.832Z,13.90
2022-11-27T00:38:43.938Z,14.15
2022-11-27T00:41:17.669Z,12.98
2022-11-27T00:43:45.592Z,15.27
2022-11-27T00:46:14.519Z,16.13
2022-11-27T00:48:42.158Z,16.48
2022-11-27T00:51:19.796Z,14.85
2022-11-27T00:53:47.372Z,15.32
2022-11-27T00:56:20.692Z,12.50
2022-11-27T00:58:48.165Z,13.20
2022-11-27T01:01:23.652Z,13.40
2022-11-27T01:03:51.328Z,17.35
2022-11-27T01:06:19.478Z,13.73
2022-11-27T01:08:47.258Z,15.23
2022-11-27T01:11:28.599Z,14.65
2022-11-27T01:13:57.118Z,13.57
2022-11-27T01:16:26.786Z,15.32
2022-11-27T01:18:57.605Z,15.02
2022-11-27T01:21:26.279Z,17.95
2022-11-27T01:23:54.574Z,16.27
2022-11-27T01:26:22.319Z,16.33
2022-11-27T01:28:52.328Z,13.02
2022-11-27T01:31:22.467Z,14.23
2022-11-27T01:33:54.175Z,12.50
2022-11-27T01:36:21.364Z,12.38
2022-11-27T01:38:48.277Z,14.57
2022-11-27T01:41:21.657Z,17.00
2022-11-27T01:43:51.566Z,15.25
2022-11-27T01:46:42.854Z,12.63
2022-11-27T01:49:09.747Z,17.35
2022-11-27T01:51:52.511Z,16.05
2022-11-27T01:54:21.881Z,15.57
2022-11-27T01:56:52.040Z,14.00
2022-11-27T01:59:19.470Z,15.25
2022-11-27T02:01:46.377Z,15.82
2022-11-27T02:04:13.381Z,15.10
2022-11-27T02:06:40.307Z,13.48
2022-11-27T02:09:07.225Z,12.50
2022-11-27T02:11:43.324Z,17.55
2022-11-27T02:14:28.908Z,25.52
2022-11-27T02:17:15.242Z,21.00
2022-11-27T02:20:12.009Z,18.40
2022-11-27T02:22:47.631Z,20.05
2022-11-27T02:26:08.673Z,18.38
2022-11-27T02:28:59.050Z,17.30
2022-11-27T02:31:40.363Z,13.35
2022-11-27T02:34:28.320Z,12.35
2022-11-27T02:37:08.945Z,12.30
2022-11-27T02:40:03.700Z,12.77
2022-11-27T02:42:38.476Z,12.23
2022-11-27T02:45:16.662Z,8.93
2022-11-27T02:47:47.167Z,15.07
2022-11-27T02:52:49.196Z,11.52
2022-11-27T02:55:20.246Z,10.30
2022-11-27T02:57:50.837Z,12.43
2022-11-27T03:00:18.094Z,9.82
2022-11-27T03:02:51.064Z,10.38
2022-11-27T03:05:21.781Z,10.88
2022-11-27T03:07:52.637Z,13.30
2022-11-27T03:10:31.781Z,13.68
2022-11-27T03:12:59.885Z,10.48
2022-11-27T03:15:39.673Z,10.77
2022-11-27T03:18:23.108Z,11.55
2022-11-27T03:20:56.964Z,13.38
2022-11-27T03:23:23.819Z,10.48
2022-11-27T03:25:50.733Z,10.38
2022-11-27T03:28:17.680Z,13.15
2022-11-27T03:30:44.512Z,12.98
2022-11-27T03:33:11.781Z,14.65
2022-11-27T03:35:38.727Z,13.65
2022-11-27T03:38:05.852Z,5.75
2022-11-27T03:40:56.692Z,8.15
2022-11-27T03:43:27.656Z,4.32
2022-11-27T03:46:23.763Z,3.03
2022-11-27T03:49:02.817Z,1.98
2022-11-27T03:51:44.875Z,2.63
2022-11-27T03:54:20.560Z,2.45
2022-11-27T03:57:22.008Z,1.65
2022-11-27T03:59:52.944Z,1.73
2022-11-27T04:02:38.626Z,2.03
2022-11-27T04:05:05.921Z,1.48
2022-11-27T04:07:32.805Z,1.27
2022-11-27T04:09:59.620Z,5.78
2022-11-27T04:12:26.443Z,1.10
2022-11-27T04:14:53.254Z,1.63
2022-11-27T04:17:20.240Z,1.10
2022-11-27T04:19:47.257Z,1.98
2022-11-27T04:22:14.093Z,1.38
2022-11-27T04:24:41.160Z,0.73
2022-11-27T04:27:08.131Z,1.50
2022-11-27T04:29:36.559Z,1.33
2022-11-27T04:32:04.516Z,5.45
2022-11-27T04:34:32.199Z,3.60
2022-11-27T04:36:59.341Z,1.58
2022-11-27T04:39:26.607Z,1.75
2022-11-27T04:41:53.522Z,2.55
2022-11-27T04:44:22.681Z,2.45
2022-11-27T04:46:50.244Z,2.15
2022-11-27T04:49:17.300Z,1.48
2022-11-27T04:51:44.231Z,1.73
2022-11-27T04:54:11.201Z,1.52
2022-11-27T04:56:38.089Z,2.13
2022-11-27T04:59:05.476Z,2.58
2022-11-27T05:01:32.551Z,1.05
2022-11-27T05:03:59.478Z,1.10
2022-11-27T05:06:26.350Z,1.55
2022-11-27T05:08:59.955Z,3.92
2022-11-27T05:11:26.995Z,1.65
2022-11-27T05:14:14.108Z,0.90
2022-11-27T05:16:42.023Z,1.30
2022-11-27T05:19:10.684Z,2.10
2022-11-27T05:21:38.596Z,1.15
2022-11-27T05:24:05.870Z,1.48
2022-11-27T05:26:33.212Z,0.70
2022-11-27T05:29:00.406Z,1.48
2022-11-27T05:31:27.635Z,1.70
2022-11-27T05:33:54.635Z,1.88
2022-11-27T05:36:21.684Z,1.52
2022-11-27T05:38:48.609Z,1.45
2022-11-27T05:41:15.516Z,2.38
2022-11-27T05:43:42.385Z,1.80
2022-11-27T05:46:12.233Z,1.15
2022-11-27T05:48:39.211Z,2.35
2022-11-27T05:51:06.292Z,2.78
2022-11-27T05:53:33.833Z,1.30
2022-11-27T05:56:12.949Z,3.90
2022-11-27T05:58:40.698Z,1.35
2022-11-27T06:01:09.146Z,1.58
2022-11-27T06:03:39.007Z,1.10
2022-11-27T06:06:08.054Z,1.38
2022-11-27T06:08:36.863Z,2.13
2022-11-27T06:11:12.518Z,1.52
2022-11-27T06:13:39.388Z,1.52
2022-11-27T06:16:15.576Z,1.67
2022-11-27T06:18:43.116Z,1.63
2022-11-27T06:21:14.721Z,1.30
2022-11-27T06:23:42.850Z,1.50
2022-11-27T06:26:22.358Z,3.53
2022-11-27T06:28:49.922Z,2.30
2022-11-27T06:31:20.012Z,3.17
2022-11-27T06:33:49.154Z,1.80
2022-11-27T06:36:17.557Z,3.35
2022-11-27T06:38:45.097Z,4.38
2022-11-27T06:41:14.696Z,2.58
2022-11-27T06:43:42.108Z,1.50
2022-11-27T06:46:13.627Z,1.85
2022-11-27T06:48:40.882Z,2.50
2022-11-27T06:51:09.950Z,1.58
2022-11-27T06:53:37.814Z,1.48
2022-11-27T06:56:16.032Z,3.45
2022-11-27T06:58:43.692Z,2.85
2022-11-27T07:01:16.885Z,1.98
2022-11-27T07:03:44.645Z,1.70
2022-11-27T07:06:15.281Z,2.30
2022-11-27T07:08:42.386Z,2.22
2022-11-27T07:11:12.967Z,4.07
2022-11-27T07:13:40.174Z,2.00
2022-11-27T07:16:09.975Z,3.25
2022-11-27T07:18:45.168Z,2.42
2022-11-27T07:21:12.513Z,2.92
2022-11-27T07:23:39.589Z,2.25
2022-11-27T07:26:08.711Z,2.03
2022-11-27T07:28:35.688Z,2.90
2022-11-27T07:31:03.295Z,3.17
2022-11-27T07:33:30.350Z,2.47
2022-11-27T07:36:02.698Z,4.13
2022-11-27T07:38:29.666Z,3.13
2022-11-27T07:41:00.835Z,3.10
2022-11-27T07:43:28.657Z,5.93
2022-11-27T07:45:56.067Z,3.58
2022-11-27T07:48:23.270Z,2.80
2022-11-27T07:50:50.126Z,3.72
2022-11-27T07:53:17.226Z,5.70
2022-11-27T07:55:44.040Z,4.00
2022-11-27T07:58:10.928Z,3.85
2022-11-27T08:00:38.299Z,3.47
2022-11-27T08:03:05.269Z,5.05
2022-11-27T08:05:35.582Z,3.63
2022-11-27T08:08:04.411Z,6.20
2022-11-27T08:10:34.702Z,3.78
2022-11-27T08:13:01.674Z,5.05
2022-11-27T08:15:28.566Z,4.30
2022-11-27T08:17:55.475Z,4.20
2022-11-27T08:20:23.024Z,6.32
2022-11-27T08:22:50.214Z,6.93
2022-11-27T08:25:17.735Z,4.18
2022-11-27T08:27:44.767Z,5.20
2022-11-27T08:30:11.904Z,5.40
2022-11-27T08:32:40.566Z,4.90
2022-11-27T08:35:07.862Z,5.70
2022-11-27T08:37:35.246Z,4.90
2022-11-27T08:40:02.505Z,9.20
2022-11-27T08:42:29.486Z,5.75
2022-11-27T08:44:56.465Z,5.05
2022-11-27T08:47:23.339Z,5.55
2022-11-27T08:49:50.381Z,6.35
2022-11-27T08:52:17.381Z,6.45
2022-11-27T08:54:44.275Z,7.18
2022-11-27T08:57:11.083Z,9.40
2022-11-27T08:59:37.991Z,7.68
2022-11-27T09:02:04.898Z,6.10
2022-11-27T09:04:31.913Z,8.80
2022-11-27T09:06:58.993Z,6.72
2022-11-27T09:09:25.968Z,6.85
2022-11-27T09:11:54.721Z,7.15
2022-11-27T09:14:21.654Z,7.35
2022-11-27T09:16:48.680Z,7.35
2022-11-27T09:19:15.768Z,7.55
2022-11-27T09:21:42.619Z,6.93
2022-11-27T09:24:09.882Z,9.63
2022-11-27T09:26:36.806Z,7.25
2022-11-27T09:29:04.103Z,8.50
2022-11-27T09:31:31.065Z,9.20
2022-11-27T09:33:58.633Z,9.20
2022-11-27T09:36:26.726Z,9.02
2022-11-27T09:38:54.358Z,8.73
2022-11-27T09:41:38.719Z,7.93
2022-11-27T09:44:14.921Z,5.70
2022-11-27T09:46:43.576Z,2.78
2022-11-27T09:49:15.673Z,1.83
2022-11-27T09:51:55.063Z,0.98
2022-11-27T09:54:54.898Z,1.25
2022-11-27T09:57:31.511Z,1.50
2022-11-27T10:00:10.602Z,1.20
2022-11-27T10:02:37.551Z,1.98
2022-11-27T10:05:14.424Z,1.10
2022-11-27T10:08:07.233Z,2.30
2022-11-27T10:10:57.007Z,2.53
2022-11-27T10:13:32.512Z,2.47
2022-11-27T10:16:03.169Z,2.35
2022-11-27T10:18:40.663Z,0.73
2022-11-27T10:21:14.973Z,0.77
2022-11-27T10:24:09.923Z,1.75
2022-11-27T10:26:52.016Z,1.20
2022-11-27T10:29:45.718Z,2.60
2022-11-27T10:32:53.025Z,1.10
2022-11-27T10:35:18.292Z,1.80
2022-11-27T10:38:07.368Z,0.95
2022-11-27T10:40:43.531Z,2.35
2022-11-27T10:43:18.528Z,0.77
2022-11-27T10:46:17.621Z,0.90
2022-11-27T10:48:44.500Z,1.30
2022-11-27T10:51:32.196Z,1.20
2022-11-27T10:54:00.825Z,1.30
2022-11-27T10:56:47.859Z,0.90
2022-11-27T10:59:33.183Z,2.45
2022-11-27T11:02:03.400Z,0.85
2022-11-27T11:04:37.940Z,1.75
2022-11-27T11:07:26.697Z,1.25
2022-11-27T11:09:54.780Z,1.13
2022-11-27T11:12:23.530Z,2.00
2022-11-27T11:14:52.868Z,1.48
2022-11-27T11:17:34.877Z,1.63
2022-11-27T11:20:22.337Z,1.27
2022-11-27T11:22:49.715Z,1.40
2022-11-27T11:25:21.726Z,1.00
2022-11-27T11:27:51.277Z,1.45
2022-11-27T11:30:28.625Z,0.80
2022-11-27T11:33:03.317Z,1.38
2022-11-27T11:35:35.622Z,1.10
2022-11-27T11:38:16.230Z,1.35
2022-11-27T11:40:46.734Z,1.58
2022-11-27T11:48:25.564Z,0.82
2022-11-27T11:50:58.664Z,1.17
2022-11-27T11:53:42.645Z,1.33
2022-11-27T11:56:37.706Z,1.25
2022-11-27T11:59:22.570Z,1.40
2022-11-27T12:02:03.885Z,0.70
2022-11-27T12:04:48.621Z,1.67
2022-11-27T12:07:43.078Z,1.30
2022-11-27T12:10:22.555Z,1.20
2022-11-27T12:13:19.081Z,1.27
2022-11-27T12:16:04.757Z,0.88
2022-11-27T12:18:57.945Z,0.80
2022-11-27T12:21:38.702Z,0.95
2022-11-27T12:24:29.375Z,1.27
2022-11-27T12:27:04.876Z,1.13
2022-11-27T12:29:52.906Z,1.20
2022-11-27T12:32:52.439Z,1.58
2022-11-27T12:35:19.691Z,1.20
2022-11-27T12:38:17.333Z,1.55
2022-11-27T12:41:02.912Z,0.60
2022-11-27T12:43:36.072Z,1.77
2022-11-27T12:46:09.063Z,1.00
2022-11-27T12:49:00.670Z,0.93
2022-11-27T12:51:32.166Z,1.42
2022-11-27T12:54:04.560Z,1.15
2022-11-27T12:56:44.728Z,1.33
2022-11-27T12:59:11.584Z,0.80
2022-11-27T13:01:54.493Z,0.45
2022-11-27T13:04:27.854Z,3.25
2022-11-27T13:07:00.851Z,0.90
2022-11-27T13:09:45.688Z,2.05
2022-11-27T13:12:22.449Z,2.30
2022-11-27T13:15:00.464Z,1.05
2022-11-27T13:17:35.425Z,1.25
2022-11-27T13:20:03.662Z,0.95
2022-11-27T13:23:33.906Z,1.13
2022-11-27T13:26:11.415Z,1.05
2022-11-27T13:29:23.681Z,1.17
2022-11-27T13:31:55.803Z,1.20
2022-11-27T13:34:26.890Z,1.52
2022-11-27T13:37:08.175Z,1.02
2022-11-27T13:39:39.045Z,0.90
2022-11-27T13:42:12.177Z,0.90
2022-11-27T13:44:43.910Z,1.00
2022-11-27T13:47:23.028Z,0.70
2022-11-27T13:50:10.122Z,1.20
2022-11-27T13:52:37.629Z,1.83
2022-11-27T13:55:09.735Z,2.95
2022-11-27T13:57:38.439Z,1.58
2022-11-27T14:00:11.174Z,2.00
2022-11-27T14:02:46.681Z,1.98
2022-11-27T14:05:15.971Z,1.90
2022-11-27T14:07:49.306Z,1.88
2022-11-27T14:10:21.067Z,1.40
2022-11-27T14:13:07.072Z,2.15
2022-11-27T14:15:36.531Z,2.85
2022-11-27T14:18:19.280Z,1.45
2022-11-27T14:20:56.099Z,2.42
2022-11-27T14:23:31.765Z,2.92
2022-11-27T14:26:03.935Z,2.85
2022-11-27T14:28:32.118Z,3.90
2022-11-27T14:31:00.995Z,2.58
2022-11-27T14:33:47.461Z,3.88
2022-11-27T14:36:28.161Z,3.22
2022-11-27T14:38:54.999Z,3.42
2022-11-27T14:41:25.044Z,4.63
2022-11-27T14:44:06.531Z,4.30
2022-11-27T14:46:36.652Z,6.55
2022-11-27T14:49:03.975Z,6.32
2022-11-27T14:51:33.334Z,7.47
2022-11-27T14:54:10.866Z,7.57
2022-11-27T14:56:41.387Z,7.95
2022-11-27T15:01:46.551Z,8.85
2022-11-27T15:04:28.998Z,8.40
2022-11-27T15:06:57.512Z,6.95
2022-11-27T15:09:32.090Z,7.60
2022-11-27T15:12:01.095Z,7.00
2022-11-27T15:14:29.302Z,6.32
2022-11-27T15:16:58.127Z,8.35
2022-11-27T15:19:35.568Z,7.35
2022-11-27T15:22:03.556Z,6.80
2022-11-27T15:24:37.571Z,6.93
2022-11-27T15:27:22.789Z,9.32
2022-11-27T15:29:49.657Z,11.93
2022-11-27T15:32:24.009Z,10.93
2022-11-27T15:34:54.654Z,12.48
2022-11-27T15:37:27.435Z,14.77
2022-11-27T15:39:56.423Z,15.65
2022-11-27T15:42:24.076Z,15.77
2022-11-27T15:44:54.831Z,17.92
2022-11-27T15:50:02.147Z,21.45
2022-11-27T15:52:30.511Z,24.90
2022-11-27T15:54:57.354Z,24.23
2022-11-27T15:57:25.149Z,26.58
2022-11-27T15:59:52.241Z,22.10
2022-11-27T16:02:19.181Z,14.10
2022-11-27T16:04:46.016Z,13.02
2022-11-27T16:07:12.946Z,14.80
2022-11-27T16:09:40.115Z,16.55
2022-11-27T16:12:07.187Z,15.50
2022-11-27T16:14:34.220Z,14.85
2022-11-27T16:17:01.477Z,13.35
2022-11-27T16:19:28.703Z,24.17
2022-11-27T16:21:56.807Z,44.15
2022-11-27T16:24:23.964Z,34.22
2022-11-27T16:26:50.838Z,31.33
2022-11-27T16:29:17.969Z,25.98
2022-11-27T16:31:44.827Z,16.20
2022-11-27T16:34:12.275Z,19.92
2022-11-27T16:36:43.762Z,18.65
2022-11-27T16:39:11.799Z,27.00
2022-11-27T16:41:39.626Z,18.58
2022-11-27T16:44:12.429Z,14.02
2022-11-27T16:46:39.521Z,12.27
2022-11-27T16:49:06.646Z,12.60
2022-11-27T16:51:34.996Z,12.23
2022-11-27T16:54:04.693Z,11.48
2022-11-27T16:56:33.412Z,11.68
2022-11-27T16:59:06.620Z,12.30
2022-11-27T17:01:36.205Z,10.75
2022-11-27T17:04:09.100Z,12.02
2022-11-27T17:06:37.827Z,10.73
2022-11-27T17:09:07.578Z,8.68
2022-11-27T17:11:36.431Z,9.63
2022-11-27T17:14:07.284Z,9.98
2022-11-27T17:16:35.922Z,39.03
2022-11-27T17:19:03.890Z,21.08
2022-11-27T17:21:33.820Z,21.30
2022-11-27T17:24:10.153Z,21.73
2022-11-27T17:26:43.498Z,27.25
2022-11-27T17:29:11.940Z,21.52
2022-11-27T17:31:39.833Z,18.92
2022-11-27T17:34:07.354Z,19.50
2022-11-27T17:36:37.478Z,21.83
2022-11-27T17:39:06.467Z,21.67
2022-11-27T17:41:33.866Z,22.90
2022-11-27T17:44:02.685Z,27.60
2022-11-27T17:46:30.443Z,20.38
2022-11-27T17:49:00.366Z,17.95
2022-11-27T17:51:30.714Z,14.48
2022-11-27T17:54:01.097Z,14.32
2022-11-27T17:56:32.253Z,14.98
2022-11-27T17:59:01.806Z,15.95
2022-11-27T18:01:30.440Z,13.52
2022-11-27T18:04:00.891Z,13.18
2022-11-27T18:06:30.814Z,12.18
2022-11-27T18:08:58.860Z,13.63
2022-11-27T18:11:29.221Z,13.60
2022-11-27T18:13:59.245Z,11.07
2022-11-27T18:16:29.524Z,12.85
2022-11-27T18:18:58.012Z,10.88
2022-11-27T18:21:29.067Z,10.55
2022-11-27T18:29:30.453Z,8.60
2022-11-27T18:31:57.324Z,8.65
2022-11-27T18:34:24.246Z,8.23
2022-11-27T18:36:51.197Z,10.00
2022-11-27T18:39:21.848Z,11.82
2022-11-27T18:41:49.020Z,24.20
2022-11-27T18:44:16.054Z,21.05
2022-11-27T18:46:43.095Z,25.48
2022-11-27T18:49:10.052Z,17.48
2022-11-27T18:51:37.134Z,12.45
2022-11-27T18:54:04.270Z,11.55
2022-11-27T18:56:32.456Z,10.15
2022-11-27T18:59:06.388Z,9.77
2022-11-27T19:01:41.290Z,10.15
2022-11-27T19:04:10.663Z,13.43
2022-11-27T19:06:38.999Z,8.90
2022-11-27T19:40:06.546Z,8.95
2022-11-27T19:42:33.494Z,8.88
2022-11-27T19:45:00.315Z,6.32
2022-11-27T19:47:27.322Z,6.68
2022-11-27T19:49:54.114Z,7.88
2022-11-27T19:52:20.993Z,9.55
2022-11-27T19:54:48.018Z,10.70
2022-11-27T19:57:15.075Z,10.50
2022-11-27T19:59:42.892Z,17.75
2022-11-27T20:02:14.509Z,23.90
2022-11-27T20:04:42.094Z,22.55
2022-11-27T20:07:09.120Z,19.80
2022-11-27T20:09:36.308Z,21.85
2022-11-27T20:12:03.674Z,15.82
2022-11-27T20:14:30.621Z,10.40
2022-11-27T20:16:57.567Z,7.57
2022-11-27T20:19:24.579Z,10.00
2022-11-27T20:21:51.586Z,8.77
2022-11-27T20:24:18.917Z,10.77
2022-11-27T20:26:45.908Z,9.15
2022-11-27T20:29:13.505Z,10.30
2022-11-27T20:31:43.841Z,9.43
2022-11-27T20:34:16.538Z,9.30
2022-11-27T20:36:43.478Z,9.00
2022-11-27T20:39:13.006Z,8.32
2022-11-27T20:41:42.152Z,9.05
2022-11-27T20:44:13.400Z,10.30
2022-11-27T20:46:40.299Z,9.07
2022-11-27T20:49:10.541Z,10.20
2022-11-27T20:51:39.101Z,8.50
2022-11-27T20:54:08.455Z,9.50
2022-11-27T20:56:35.771Z,8.30
2022-11-27T20:59:04.993Z,10.82
2022-11-27T21:01:34.633Z,9.27
2022-11-27T21:04:09.018Z,10.77
2022-11-27T21:06:43.230Z,10.88
2022-11-27T21:09:11.913Z,10.55
2022-11-27T21:11:39.306Z,10.80
2022-11-27T21:14:09.561Z,11.35
2022-11-27T21:16:39.872Z,12.40
2022-11-27T21:19:13.167Z,11.60
2022-11-27T21:21:40.165Z,11.07
2022-11-27T21:24:07.751Z,11.30
2022-11-27T21:26:35.330Z,10.75
2022-11-27T21:29:03.830Z,10.13
2022-11-27T21:31:37.266Z,9.80
2022-11-27T21:34:06.493Z,9.80
2022-11-27T21:36:36.035Z,12.05
2022-11-27T21:39:06.355Z,11.18
2022-11-27T21:41:33.647Z,10.00
2022-11-27T21:44:02.450Z,9.85
2022-11-27T21:46:30.572Z,12.45
2022-11-27T21:49:01.403Z,10.57
2022-11-27T21:51:29.605Z,11.57
2022-11-27T21:53:58.794Z,9.93
2022-11-27T21:56:27.934Z,13.18
2022-11-27T21:58:54.986Z,11.32
2022-11-27T22:01:24.467Z,9.57
2022-11-27T22:03:54.200Z,9.93
2022-11-27T22:06:23.018Z,11.57
2022-11-27T22:08:51.921Z,11.45
2022-11-27T22:11:21.566Z,11.10
2022-11-27T22:13:49.758Z,10.07
2022-11-27T22:16:19.824Z,9.90
2022-11-27T22:18:48.607Z,8.77
2022-11-27T22:21:16.649Z,8.52
2022-11-27T22:23:44.476Z,10.18
2022-11-27T22:26:17.315Z,8.85
2022-11-27T22:28:45.223Z,8.77
2022-11-27T22:31:20.361Z,10.48
2022-11-27T22:33:48.988Z,10.35
2022-11-27T22:36:30.323Z,12.18
2022-11-27T22:38:59.078Z,10.80
2022-11-27T22:41:28.854Z,10.95
2022-11-27T22:43:55.956Z,11.45
2022-11-27T22:46:32.689Z,9.13
2022-11-27T22:49:02.594Z,8.85
2022-11-27T22:51:31.636Z,12.15
2022-11-27T22:53:59.083Z,12.20
2022-11-27T22:56:26.223Z,11.68
2022-11-27T22:59:11.376Z,11.25
2022-11-27T23:01:40.987Z,10.35
2022-11-27T23:04:08.385Z,9.30
2022-11-27T23:06:36.933Z,10.45
2022-11-27T23:09:04.082Z,10.05
2022-11-27T23:11:31.398Z,11.07
2022-11-27T23:13:58.887Z,12.13
2022-11-27T23:16:26.629Z,10.68
2022-11-27T23:18:53.661Z,8.23
2022-11-27T23:21:23.172Z,8.05
2022-11-27T23:23:50.531Z,7.77
2022-11-27T23:26:23.094Z,10.80
2022-11-27T23:28:52.300Z,8.35
2022-11-27T23:31:38.154Z,9.15
2022-11-27T23:34:08.493Z,8.68
2022-11-27T23:36:35.956Z,8.52
2022-11-27T23:39:05.066Z,6.90
2022-11-27T23:41:32.726Z,6.00
2022-11-27T23:43:59.634Z,8.10
2022-11-27T23:46:28.733Z,8.77
2022-11-27T23:48:57.797Z,6.68
2022-11-27T23:51:27.147Z,7.30
2022-11-27T23:53:54.418Z,6.10
2022-11-27T23:56:26.840Z,7.60
2022-11-27T23:58:55.132Z,5.95
